Time;durP1;ratioP1;P1;durP2;ratioP2;P2;SDS_P1;SDS_P2;PMS_P1;PMS_P2;Temp;Humidity;BMP_temperature;BMP_pressure;BME280_temperature;BME280_humidity;BME280_pressure;Samples;Min_cycle;Max_cycle;Signal;HPM_P1;HPM_P2
2022/09/07 00:00:20;;;;;;;1.33;0.93;;;;;;;27.80;51.58;98845.25;2084901;28;20056;-60
2022/09/07 00:01:22;;;;;;;2.05;1.52;;;;;;;27.77;51.66;98845.72;2087311;28;20045;-59
2022/09/07 00:02:23;;;;;;;5.15;1.60;;;;;;;27.79;51.34;98838.16;2087742;28;20044;-58
2022/09/07 00:03:25;;;;;;;2.33;1.10;;;;;;;27.80;51.21;98836.25;2088790;28;20694;-61
2022/09/07 00:04:26;;;;;;;4.03;1.55;;;;;;;27.80;51.27;98828.06;2082741;28;20049;-62
2022/09/07 00:05:29;;;;;;;4.82;1.25;;;;;;;27.79;51.45;98835.41;2089518;28;20084;-54
2022/09/07 00:06:29;;;;;;;5.13;2.05;;;;;;;27.79;51.58;98834.56;2087049;28;20414;-54
2022/09/07 00:07:31;;;;;;;2.80;1.77;;;;;;;27.79;51.55;98829.13;2086920;28;20068;-52
2022/09/07 00:08:32;;;;;;;2.55;1.25;;;;;;;27.80;51.59;98830.78;2087665;28;20056;-54
2022/09/07 00:09:34;;;;;;;1.77;1.13;;;;;;;27.80;51.58;98826.19;2086994;28;20052;-57
2022/09/07 00:10:35;;;;;;;2.88;1.15;;;;;;;27.79;51.56;98824.53;2085387;28;20499;-55
2022/09/07 00:11:37;;;;;;;2.65;1.13;;;;;;;27.78;51.56;98816.59;2086164;28;20482;-56
2022/09/07 00:12:39;;;;;;;2.45;1.70;;;;;;;27.78;51.62;98822.84;2089256;28;20557;-59
2022/09/07 00:13:42;;;;;;;3.88;1.13;;;;;;;27.78;51.54;98814.69;2092191;28;20119;-53
2022/09/07 00:14:44;;;;;;;1.90;1.38;;;;;;;27.78;51.69;98811.97;2084070;28;20189;-56
2022/09/07 00:15:46;;;;;;;2.42;1.33;;;;;;;27.77;51.69;98815.75;2081754;28;20041;-59
2022/09/07 00:16:47;;;;;;;3.47;1.48;;;;;;;27.78;51.76;98814.69;2087891;28;20055;-60
2022/09/07 00:17:49;;;;;;;2.13;1.73;;;;;;;27.78;51.85;98809.22;2085563;28;20072;-59
2022/09/07 00:18:52;;;;;;;2.17;1.30;;;;;;;27.77;51.88;98821.19;2082401;28;20045;-57
2022/09/07 00:19:55;;;;;;;4.60;1.33;;;;;;;27.78;51.77;98814.69;2085015;28;20099;-54
2022/09/07 00:21:00;;;;;;;1.95;1.42;;;;;;;27.78;51.92;98808.41;2087501;28;20628;-57
2022/09/07 00:22:02;;;;;;;3.05;1.70;;;;;;;27.78;51.82;98806.50;2087830;28;20048;-51
2022/09/07 00:23:03;;;;;;;3.30;1.38;;;;;;;27.78;51.88;98811.97;2088908;28;20404;-54
2022/09/07 00:24:04;;;;;;;3.33;1.33;;;;;;;27.78;51.59;98805.69;2089771;28;20079;-54
2022/09/07 00:25:06;;;;;;;9.68;2.00;;;;;;;27.77;51.63;98809.47;2089322;28;20045;-52
2022/09/07 00:26:10;;;;;;;2.80;1.10;;;;;;;27.77;51.80;98810.28;2088111;28;20053;-54
2022/09/07 00:27:11;;;;;;;2.67;1.30;;;;;;;27.77;51.78;98809.47;2086002;28;20048;-52
2022/09/07 00:28:13;;;;;;;2.05;1.08;;;;;;;27.76;51.86;98805.94;2083751;28;20083;-50
2022/09/07 00:29:14;;;;;;;3.80;1.58;;;;;;;27.76;51.84;98805.94;2083660;28;20051;-54
2022/09/07 00:30:17;;;;;;;2.30;1.88;;;;;;;27.76;51.78;98816.84;2084218;28;20117;-54
2022/09/07 00:31:20;;;;;;;3.13;1.50;;;;;;;27.76;52.06;98814.13;2086016;28;20045;-56
2022/09/07 00:32:22;;;;;;;2.28;1.33;;;;;;;27.76;51.69;98814.13;2081545;28;20057;-54
2022/09/07 00:33:23;;;;;;;1.67;1.25;;;;;;;27.76;51.97;98814.13;2086665;28;20044;-60
2022/09/07 00:34:25;;;;;;;2.55;1.70;;;;;;;27.77;51.47;98814.94;2083108;28;20084;-55
2022/09/07 00:35:26;;;;;;;1.52;1.42;;;;;;;27.77;51.71;98818.47;2089258;28;20155;-59
2022/09/07 00:36:29;;;;;;;1.58;1.30;;;;;;;27.76;51.78;98807.84;2081032;28;20732;-59
2022/09/07 00:37:29;;;;;;;1.95;1.50;;;;;;;27.77;51.63;98810.28;2081774;28;20749;-57
2022/09/07 00:38:32;;;;;;;4.10;1.92;;;;;;;27.76;51.63;98808.66;2083510;28;20045;-56
2022/09/07 00:39:32;;;;;;;4.55;1.85;;;;;;;27.75;51.92;98812.47;2086620;28;20045;-53
2022/09/07 00:40:34;;;;;;;1.55;1.10;;;;;;;27.76;51.62;98814.13;2086897;28;20068;-59
2022/09/07 00:41:35;;;;;;;2.28;1.15;;;;;;;27.75;51.74;98807.03;2093062;28;20044;-55
2022/09/07 00:42:37;;;;;;;1.20;1.10;;;;;;;27.76;51.65;98807.84;2098225;28;20505;-57
2022/09/07 00:43:41;;;;;;;3.78;1.88;;;;;;;27.76;51.64;98805.94;2098250;28;20044;-57
2022/09/07 00:45:14;;;;;;;1.90;1.20;;;;;;;27.71;51.78;98814.06;2094247;28;20052;-53
2022/09/07 00:46:19;;;;;;;2.28;1.65;;;;;;;27.72;51.66;98820.31;2091751;28;20048;-54
2022/09/07 00:47:25;;;;;;;3.08;1.50;;;;;;;27.71;51.90;98824.97;2087156;28;20057;-59
2022/09/07 00:48:33;;;;;;;2.08;1.88;;;;;;;27.73;51.66;98832.91;2092699;28;20056;-53
2022/09/07 00:49:34;;;;;;;3.13;1.20;;;;;;;27.72;51.53;98828.50;2084799;28;20041;-57
2022/09/07 00:50:40;;;;;;;1.88;1.20;;;;;;;27.74;51.43;98820.91;2085430;28;20075;-51
2022/09/07 00:51:46;;;;;;;2.42;1.10;;;;;;;27.74;51.60;98834.53;2085276;28;20486;-58
2022/09/07 00:52:50;;;;;;;4.82;1.48;;;;;;;27.73;51.51;98819.28;2087179;28;20041;-52
2022/09/07 00:53:57;;;;;;;3.22;1.50;;;;;;;27.73;51.48;98816.53;2083386;28;20045;-54
2022/09/07 00:55:01;;;;;;;2.67;1.55;;;;;;;27.72;51.68;98829.34;2087045;28;20529;-57
2022/09/07 00:56:05;;;;;;;3.67;1.55;;;;;;;27.72;51.40;98825.78;2092814;28;20048;-59
2022/09/07 00:57:06;;;;;;;3.90;1.73;;;;;;;27.71;51.48;98826.88;2086240;28;20053;-50
2022/09/07 00:58:08;;;;;;;1.52;1.25;;;;;;;27.72;51.19;98828.50;2087371;28;20052;-54
2022/09/07 00:59:12;;;;;;;1.40;1.05;;;;;;;27.71;51.31;98818.69;2086400;28;20053;-54
2022/09/07 01:00:14;;;;;;;3.05;1.55;;;;;;;27.73;51.28;98832.91;2081901;28;20569;-58
2022/09/07 01:01:16;;;;;;;7.00;1.65;;;;;;;27.73;51.32;98835.63;2085863;28;20056;-59
2022/09/07 01:02:19;;;;;;;1.38;1.08;;;;;;;27.72;51.29;98828.50;2083751;28;20059;-61
2022/09/07 01:03:26;;;;;;;1.55;1.20;;;;;;;27.72;51.40;98829.34;2086522;28;20049;-50
2022/09/07 01:04:29;;;;;;;1.20;1.10;;;;;;;27.71;51.16;98822.25;2086307;28;20056;-51
2022/09/07 01:05:35;;;;;;;1.60;1.10;;;;;;;27.71;51.34;98830.41;2089712;28;20128;-55
2022/09/07 01:06:38;;;;;;;1.45;1.25;;;;;;;27.71;51.29;98824.16;2086011;28;20912;-58
2022/09/07 01:07:40;;;;;;;1.92;1.42;;;;;;;27.72;51.36;98825.78;2087622;28;20132;-62
2022/09/07 01:08:42;;;;;;;2.13;1.30;;;;;;;27.70;51.47;98826.06;2085014;28;20041;-59
2022/09/07 01:09:46;;;;;;;3.08;1.60;;;;;;;27.70;51.31;98831.50;2083383;28;20110;-59
2022/09/07 01:10:47;;;;;;;2.30;1.25;;;;;;;27.72;51.57;98829.34;2087756;28;20433;-51
2022/09/07 01:11:49;;;;;;;3.75;1.65;;;;;;;27.70;51.14;98826.06;2087785;28;20048;-59
2022/09/07 01:12:50;;;;;;;1.50;1.27;;;;;;;27.71;51.31;98832.31;2085804;28;20060;-52
2022/09/07 01:13:53;;;;;;;3.88;1.92;;;;;;;27.71;51.31;98827.69;2084190;28;20127;-53
2022/09/07 01:14:54;;;;;;;2.83;1.90;;;;;;;27.70;51.54;98828.78;2085297;28;20829;-56
2022/09/07 01:16:04;;;;;;;3.47;1.52;;;;;;;27.72;51.52;98833.97;2083662;28;20132;-59
2022/09/07 01:17:25;;;;;;;2.95;1.20;;;;;;;27.70;51.38;98834.22;2081881;28;20041;-57
2022/09/07 01:18:36;;;;;;;1.17;1.08;;;;;;;27.65;51.60;98823.28;2089395;28;20052;-62
2022/09/07 01:19:56;;;;;;;;;;;;;;;27.56;51.88;98830.28;2085369;28;20119;-56
2022/09/07 01:21:26;;;;;;;1.52;1.42;;;;;;;27.56;51.92;98816.66;2067847;28;19932;-53
2022/09/07 01:22:48;;;;;;;2.28;1.30;;;;;;;27.58;51.61;98811.75;2089639;28;20048;-55
2022/09/07 01:24:43;;;;;;;4.47;1.17;;;;;;;27.58;51.71;98809.88;2088954;28;20047;-59
2022/09/07 01:25:56;;;;;;;2.60;1.60;;;;;;;27.57;51.53;98812.84;2086443;28;20498;-55
2022/09/07 01:27:45;;;;;;;2.42;1.17;;;;;;;27.58;51.67;98806.31;2086963;28;20052;-56
2022/09/07 01:28:52;;;;;;;2.22;1.48;;;;;;;27.57;51.69;98801.94;2084770;28;20041;-57
2022/09/07 01:30:02;;;;;;;4.32;1.63;;;;;;;27.60;51.46;98804.16;2083984;28;20131;-54
2022/09/07 01:31:10;;;;;;;3.30;1.40;;;;;;;27.61;51.59;98808.53;2083317;28;20131;-60
2022/09/07 01:32:25;;;;;;;2.28;1.27;;;;;;;27.61;51.41;98793.00;2082678;28;20064;-56
2022/09/07 01:33:47;;;;;;;3.28;1.20;;;;;;;27.59;51.47;98800.63;2082032;28;20053;-62
2022/09/07 01:34:52;;;;;;;3.35;1.50;;;;;;;27.61;51.63;98794.91;2087479;28;20048;-52
2022/09/07 01:36:05;;;;;;;2.08;1.58;;;;;;;27.61;51.43;98790.28;2092049;28;20045;-49
2022/09/07 01:37:16;;;;;;;2.58;1.17;;;;;;;27.62;51.40;98794.66;2092497;28;20049;-58
2022/09/07 01:38:27;;;;;;;3.45;1.27;;;;;;;27.61;51.44;98795.75;2087173;28;20051;-55
2022/09/07 01:39:35;;;;;;;3.50;1.30;;;;;;;27.60;51.53;98788.63;2085173;28;20064;-53
2022/09/07 01:40:44;;;;;;;3.05;0.98;;;;;;;27.61;51.59;98784.03;2084125;28;20942;-59
2022/09/07 01:41:51;;;;;;;2.83;1.15;;;;;;;27.62;51.34;98780.19;2085207;28;20036;-51
2022/09/07 01:43:01;;;;;;;1.77;1.35;;;;;;;27.62;51.37;98775.56;2085858;28;20044;-57
2022/09/07 01:44:06;;;;;;;2.13;1.30;;;;;;;27.62;51.39;98780.19;2091872;28;20093;-49
2022/09/07 01:45:13;;;;;;;1.65;1.20;;;;;;;27.61;51.34;98787.56;2093531;28;20052;-57
2022/09/07 01:46:19;;;;;;;3.22;1.15;;;;;;;27.62;51.25;98782.94;2086683;28;20049;-61
2022/09/07 01:47:25;;;;;;;1.60;1.20;;;;;;;27.62;51.47;98780.19;2081599;28;20048;-56
2022/09/07 01:48:26;;;;;;;2.75;1.40;;;;;;;27.60;51.15;98783.19;2081295;28;20133;-59
2022/09/07 01:49:33;;;;;;;2.03;1.30;;;;;;;27.62;51.28;98781.03;2087556;28;20105;-58
2022/09/07 01:50:41;;;;;;;3.25;1.55;;;;;;;27.61;51.32;98784.03;2089714;28;20434;-59
2022/09/07 01:51:46;;;;;;;3.70;1.63;;;;;;;27.60;51.29;98782.34;2085901;28;20647;-51
2022/09/07 01:52:53;;;;;;;2.10;1.52;;;;;;;27.60;51.38;98783.19;2087186;28;20044;-60
2022/09/07 01:53:59;;;;;;;3.63;2.28;;;;;;;27.60;51.24;98777.72;2084407;28;20045;-57
2022/09/07 01:55:05;;;;;;;4.55;1.60;;;;;;;27.62;51.31;98780.19;2086282;28;20048;-53
2022/09/07 01:56:11;;;;;;;2.08;1.30;;;;;;;27.63;51.27;98773.66;2094758;28;20056;-51
2022/09/07 01:57:17;;;;;;;3.20;1.45;;;;;;;27.62;51.32;98772.84;2095531;28;20051;-48
2022/09/07 01:58:26;;;;;;;1.48;1.15;;;;;;;27.59;51.45;98770.66;2093335;28;20697;-54
2022/09/07 01:59:30;;;;;;;2.08;1.25;;;;;;;27.61;51.16;98773.94;2085402;28;20052;-53
2022/09/07 02:00:34;;;;;;;2.00;1.60;;;;;;;27.60;51.10;98769.56;2087868;28;20187;-52
2022/09/07 02:01:40;;;;;;;2.35;1.23;;;;;;;27.61;51.33;98773.94;2085436;28;20052;-56
2022/09/07 02:02:48;;;;;;;1.58;1.20;;;;;;;27.61;50.96;98782.13;2084254;28;20103;-59
2022/09/07 02:03:54;;;;;;;3.20;1.38;;;;;;;27.60;51.27;98776.91;2083547;28;20052;-54
2022/09/07 02:05:02;;;;;;;4.55;1.52;;;;;;;27.59;51.06;98767.09;2083316;28;20045;-56
2022/09/07 02:06:10;;;;;;;2.25;1.30;;;;;;;27.59;51.12;98765.19;2092167;28;20057;-55
2022/09/07 02:07:16;;;;;;;1.77;1.00;;;;;;;27.58;51.27;98768.16;2088735;28;20491;-55
2022/09/07 02:08:26;;;;;;;3.85;1.40;;;;;;;27.60;51.08;98763.28;2086152;28;20045;-55
2022/09/07 02:09:32;;;;;;;3.42;0.82;;;;;;;27.57;51.21;98764.63;2084229;28;20053;-51
2022/09/07 02:10:40;;;;;;;2.65;1.23;;;;;;;27.58;50.81;98754.53;2083711;28;20036;-50
2022/09/07 02:11:44;;;;;;;1.33;1.13;;;;;;;27.59;51.19;98758.94;2088262;28;20045;-57
2022/09/07 02:12:52;;;;;;;3.45;1.50;;;;;;;27.59;50.88;98765.19;2085737;28;20044;-51
2022/09/07 02:14:00;;;;;;;1.65;0.98;;;;;;;27.59;50.87;98772.56;2084730;28;20464;-59
2022/09/07 02:15:05;;;;;;;2.15;1.63;;;;;;;27.58;51.10;98766.28;2085348;28;20148;-51
2022/09/07 02:16:12;;;;;;;1.90;1.35;;;;;;;27.59;50.83;98764.38;2092834;28;20047;-61
2022/09/07 02:17:20;;;;;;;0.90;0.90;;;;;;;27.57;50.91;98767.34;2083948;28;20479;-56
2022/09/07 02:18:23;;;;;;;2.78;1.23;;;;;;;27.57;50.89;98769.25;2088789;28;20144;-54
2022/09/07 02:19:30;;;;;;;2.85;1.33;;;;;;;27.58;50.59;98769.00;2085606;28;20548;-55
2022/09/07 02:20:35;;;;;;;1.52;1.20;;;;;;;27.56;50.63;98762.19;2086596;28;20049;-59
2022/09/07 02:21:42;;;;;;;2.15;1.40;;;;;;;27.55;50.59;98766.81;2084269;28;20065;-53
2022/09/07 02:22:48;;;;;;;4.43;1.30;;;;;;;27.55;50.50;98764.09;2086228;28;20044;-60
2022/09/07 02:23:55;;;;;;;5.78;1.63;;;;;;;27.55;50.25;98758.63;2087131;28;20679;-52
2022/09/07 02:25:00;;;;;;;2.83;1.20;;;;;;;27.54;50.57;98754.25;2085582;28;20048;-55
2022/09/07 02:26:06;;;;;;;1.30;1.15;;;;;;;27.56;50.22;98754.00;2087333;28;20052;-51
2022/09/07 02:27:12;;;;;;;1.48;1.00;;;;;;;27.53;50.07;98749.91;2085006;28;20059;-52
2022/09/07 02:28:17;;;;;;;3.30;1.48;;;;;;;27.52;50.33;98748.22;2085422;28;20059;-54
2022/09/07 02:29:19;;;;;;;2.08;1.23;;;;;;;27.54;50.33;98753.44;2084661;28;20044;-60
2022/09/07 02:30:21;;;;;;;2.80;1.27;;;;;;;27.54;50.49;98751.53;2084359;28;20053;-56
2022/09/07 02:31:22;;;;;;;3.65;1.90;;;;;;;27.54;50.04;98745.25;2084114;28;20106;-59
2022/09/07 02:32:24;;;;;;;4.78;1.45;;;;;;;27.55;50.09;98749.63;2080787;28;20076;-54
2022/09/07 02:33:26;;;;;;;5.05;1.65;;;;;;;27.55;49.95;98744.16;2084123;28;20044;-52
2022/09/07 02:34:28;;;;;;;1.50;1.27;;;;;;;27.54;50.40;98743.34;2073914;28;20059;-56
2022/09/07 02:35:29;;;;;;;2.05;1.10;;;;;;;27.54;49.86;98735.19;2085088;28;20640;-57
2022/09/07 02:36:40;;;;;;;5.70;2.17;;;;;;;27.51;49.94;98749.31;2084944;28;20080;-56
2022/09/07 02:37:43;;;;;;;3.30;1.40;;;;;;;27.49;50.01;98740.59;2085972;28;20044;-57
2022/09/07 02:38:44;;;;;;;2.65;1.00;;;;;;;27.48;49.46;98747.13;2080860;28;20041;-54
2022/09/07 02:39:46;;;;;;;1.90;1.08;;;;;;;27.48;50.29;98751.75;2086056;28;20056;-56
2022/09/07 02:40:51;;;;;;;3.75;1.27;;;;;;;27.49;49.58;98751.47;2089435;28;20044;-56
2022/09/07 02:41:51;;;;;;;1.98;0.98;;;;;;;27.49;49.46;98747.94;2086340;28;20136;-55
2022/09/07 02:42:54;;;;;;;2.30;1.70;;;;;;;27.46;49.57;98746.56;2087206;28;20048;-55
2022/09/07 02:43:55;;;;;;;2.75;0.90;;;;;;;27.48;49.69;98740.84;2087146;28;20048;-60
2022/09/07 02:45:00;;;;;;;4.57;0.90;;;;;;;27.49;49.75;98737.84;2084810;28;20068;-59
2022/09/07 02:46:18;;;;;;;2.70;1.10;;;;;;;27.45;49.46;98728.56;2082300;28;20508;-55
2022/09/07 02:47:35;;;;;;;1.58;1.27;;;;;;;27.43;49.49;98733.44;2086739;28;20077;-58
2022/09/07 02:48:45;;;;;;;1.95;1.35;;;;;;;27.42;49.62;98736.44;2090393;28;20060;-58
2022/09/07 02:50:20;;;;;;;2.00;0.90;;;;;;;27.38;49.57;98731.50;2091028;28;20052;-53
2022/09/07 02:51:32;;;;;;;2.30;1.35;;;;;;;27.37;50.08;98735.31;2089639;28;20056;-53
2022/09/07 02:52:44;;;;;;;3.28;1.25;;;;;;;27.34;50.02;98727.66;2084228;28;20063;-57
2022/09/07 02:53:59;;;;;;;1.42;1.00;;;;;;;27.35;49.72;98725.75;2085393;28;20131;-52
2022/09/07 02:55:10;;;;;;;1.88;1.08;;;;;;;27.37;49.69;98713.53;2087633;28;21306;-56
2022/09/07 02:56:23;;;;;;;3.50;1.95;;;;;;;27.37;49.65;98724.41;2085335;28;20079;-56
2022/09/07 02:57:34;;;;;;;2.72;1.08;;;;;;;27.38;50.00;98726.03;2087268;28;20060;-57
2022/09/07 02:58:46;;;;;;;2.90;0.90;;;;;;;27.37;49.94;98727.13;2086634;28;20071;-59
2022/09/07 02:59:59;;;;;;;1.42;1.17;;;;;;;27.35;49.66;98721.13;2083585;28;20052;-57
2022/09/07 03:01:10;;;;;;;1.50;1.05;;;;;;;27.36;50.01;98730.94;2084112;28;20059;-55
2022/09/07 03:02:18;;;;;;;2.15;1.00;;;;;;;27.34;49.82;98724.13;2093095;28;20051;-50
2022/09/07 03:03:24;;;;;;;5.45;1.30;;;;;;;27.35;49.44;98726.56;2086093;28;20431;-55
2022/09/07 03:04:37;;;;;;;2.63;1.42;;;;;;;27.39;49.34;98727.72;2088135;28;20053;-57
2022/09/07 03:05:43;;;;;;;1.20;0.80;;;;;;;27.42;49.46;98722.84;2084164;28;20055;-54
2022/09/07 03:06:49;;;;;;;5.03;1.25;;;;;;;27.42;49.40;98728.28;2090119;28;20051;-56
2022/09/07 03:07:56;;;;;;;1.92;1.48;;;;;;;27.43;49.21;98727.19;2089991;28;20060;-57
2022/09/07 03:09:03;;;;;;;3.20;1.05;;;;;;;27.44;49.14;98728.81;2089891;28;20056;-55
2022/09/07 03:10:07;;;;;;;1.83;0.95;;;;;;;27.43;49.02;98727.19;2086071;28;20048;-49
2022/09/07 03:11:08;;;;;;;4.00;1.83;;;;;;;27.40;49.10;98734.78;2096347;28;20048;-58
2022/09/07 03:12:11;;;;;;;1.55;1.05;;;;;;;27.39;48.77;98729.63;2086427;28;20574;-55
2022/09/07 03:13:19;;;;;;;4.60;1.67;;;;;;;27.38;49.00;98734.22;2087949;28;20053;-54
2022/09/07 03:14:24;;;;;;;3.70;1.00;;;;;;;27.35;49.00;98734.75;2086560;28;20045;-52
2022/09/07 03:15:26;;;;;;;2.30;1.75;;;;;;;27.35;49.26;98734.75;2082683;28;20545;-56
2022/09/07 03:16:30;;;;;;;2.33;1.23;;;;;;;27.38;49.28;98745.13;2087829;28;20056;-58
2022/09/07 03:17:30;;;;;;;5.07;1.55;;;;;;;27.36;49.49;98741.03;2087031;28;20094;-51
2022/09/07 03:18:32;;;;;;;1.30;1.10;;;;;;;27.37;49.46;98738.03;2082828;28;20565;-54
2022/09/07 03:19:33;;;;;;;2.30;1.25;;;;;;;27.38;49.58;98736.13;2088779;28;20052;-54
2022/09/07 03:20:35;;;;;;;2.70;1.25;;;;;;;27.37;49.46;98731.78;2091784;28;20124;-57
2022/09/07 03:21:36;;;;;;;1.77;1.08;;;;;;;27.37;49.63;98732.59;2091430;28;20554;-53
2022/09/07 03:22:38;;;;;;;1.38;1.15;;;;;;;27.38;49.22;98734.22;2093211;28;20071;-51
2022/09/07 03:23:39;;;;;;;1.95;0.98;;;;;;;27.39;49.21;98733.16;2090878;28;20407;-56
2022/09/07 03:24:42;;;;;;;1.10;0.95;;;;;;;27.38;49.39;98733.41;2091000;28;20072;-54
2022/09/07 03:25:43;;;;;;;2.22;0.90;;;;;;;27.42;49.26;98736.44;2093405;28;20051;-51
2022/09/07 03:26:47;;;;;;;3.75;1.00;;;;;;;27.40;49.31;98737.50;2092974;28;20127;-52
2022/09/07 03:27:48;;;;;;;1.10;1.00;;;;;;;27.40;49.63;98736.69;2093399;28;20040;-53
2022/09/07 03:28:49;;;;;;;1.05;0.70;;;;;;;27.42;49.22;98736.44;2093286;28;20071;-53
2022/09/07 03:29:50;;;;;;;2.45;0.93;;;;;;;27.37;49.13;98737.22;2092357;28;20040;-56
2022/09/07 03:30:52;;;;;;;1.95;0.80;;;;;;;27.37;49.20;98735.31;2081471;28;20139;-52
2022/09/07 03:31:54;;;;;;;3.28;1.33;;;;;;;27.37;49.32;98738.03;2082960;28;20041;-53
2022/09/07 03:32:57;;;;;;;1.40;0.95;;;;;;;27.36;49.41;98733.69;2091112;28;20136;-55
2022/09/07 03:33:58;;;;;;;1.48;0.93;;;;;;;27.37;49.13;98731.78;2083199;28;20048;-53
2022/09/07 03:35:00;;;;;;;1.80;1.10;;;;;;;27.35;49.23;98737.47;2095291;28;20505;-52
2022/09/07 03:36:01;;;;;;;2.30;1.20;;;;;;;27.34;49.44;98733.09;2090102;28;20082;-51
2022/09/07 03:37:03;;;;;;;2.65;1.83;;;;;;;27.35;49.03;98737.47;2091292;28;20131;-53
2022/09/07 03:38:04;;;;;;;3.25;1.10;;;;;;;27.35;48.97;98737.47;2090960;28;20051;-53
2022/09/07 03:39:06;;;;;;;1.60;1.08;;;;;;;27.33;49.33;98734.19;2083991;28;20164;-52
2022/09/07 03:40:12;;;;;;;4.78;1.10;;;;;;;27.37;49.35;98734.50;2092167;28;20055;-52
2022/09/07 03:41:14;;;;;;;1.23;0.95;;;;;;;27.34;49.34;98738.56;2086459;28;20055;-55
2022/09/07 03:42:15;;;;;;;2.45;0.80;;;;;;;27.35;48.92;98740.19;2085386;28;20127;-54
2022/09/07 03:43:17;;;;;;;2.90;1.25;;;;;;;27.36;48.86;98744.56;2085279;28;20142;-52
2022/09/07 03:44:18;;;;;;;5.50;1.27;;;;;;;27.36;48.90;98738.31;2080732;28;20049;-54
2022/09/07 03:45:20;;;;;;;1.63;1.00;;;;;;;27.35;49.15;98734.75;2085904;28;20132;-53
2022/09/07 03:46:21;;;;;;;0.80;0.80;;;;;;;27.37;49.24;98742.66;2082960;28;20057;-53
2022/09/07 03:47:24;;;;;;;1.10;0.73;;;;;;;27.36;48.97;98743.75;2085740;28;20055;-52
2022/09/07 03:48:25;;;;;;;3.45;1.25;;;;;;;27.32;49.43;98740.72;2092435;28;20044;-52
2022/09/07 03:49:27;;;;;;;2.90;1.00;;;;;;;27.33;48.96;98736.91;2091970;28;20080;-53
2022/09/07 03:50:28;;;;;;;3.20;0.80;;;;;;;27.35;48.96;98732.00;2086339;28;20052;-51
2022/09/07 03:51:30;;;;;;;1.45;0.80;;;;;;;27.37;48.98;98739.94;2087075;28;20176;-51
2022/09/07 03:52:31;;;;;;;4.47;1.17;;;;;;;27.37;48.96;98738.03;2088326;28;20052;-53
2022/09/07 03:53:33;;;;;;;1.50;0.93;;;;;;;27.38;49.18;98736.13;2088852;28;20135;-53
2022/09/07 03:54:34;;;;;;;1.67;1.08;;;;;;;27.37;48.90;98735.31;2089756;28;20057;-52
2022/09/07 03:55:36;;;;;;;2.78;1.25;;;;;;;27.36;49.05;98730.94;2083852;28;20140;-51
2022/09/07 03:56:37;;;;;;;3.80;1.10;;;;;;;27.36;49.23;98735.59;2082252;28;20048;-55
2022/09/07 03:57:39;;;;;;;4.10;0.82;;;;;;;27.37;48.83;98734.50;2086062;28;20519;-51
2022/09/07 03:58:41;;;;;;;3.13;1.08;;;;;;;27.34;49.19;98735.84;2085720;28;20049;-51
2022/09/07 03:59:43;;;;;;;1.33;0.90;;;;;;;27.36;49.28;98730.13;2083541;28;21735;-51
2022/09/07 04:00:43;;;;;;;3.15;1.25;;;;;;;27.36;49.14;98736.41;2080344;28;20049;-53
2022/09/07 04:01:45;;;;;;;1.92;1.17;;;;;;;27.38;49.05;98734.22;2083183;28;20049;-52
2022/09/07 04:02:47;;;;;;;1.80;0.85;;;;;;;27.35;49.21;98729.28;2085399;28;20059;-53
2022/09/07 04:03:49;;;;;;;2.17;1.17;;;;;;;27.34;49.28;98735.84;2085103;28;20120;-54
2022/09/07 04:04:50;;;;;;;2.90;1.00;;;;;;;27.34;49.00;98735.84;2081828;28;20408;-52
2022/09/07 04:05:52;;;;;;;3.35;1.35;;;;;;;27.35;49.06;98736.66;2081035;28;20055;-55
2022/09/07 04:06:53;;;;;;;2.38;1.25;;;;;;;27.32;49.32;98740.72;2085893;28;20414;-54
2022/09/07 04:07:55;;;;;;;3.30;1.15;;;;;;;27.35;49.21;98736.66;2086442;28;20116;-53
2022/09/07 04:08:56;;;;;;;2.30;0.82;;;;;;;27.31;49.40;98735.53;2083616;28;20076;-53
2022/09/07 04:09:58;;;;;;;2.13;1.17;;;;;;;27.33;49.21;98734.19;2079906;28;20131;-50
2022/09/07 04:11:00;;;;;;;2.92;0.80;;;;;;;27.32;49.07;98735.25;2093990;28;20063;-54
2022/09/07 04:12:02;;;;;;;0.90;0.90;;;;;;;27.33;49.29;98736.06;2084238;28;20052;-51
2022/09/07 04:13:04;;;;;;;1.75;1.00;;;;;;;27.32;49.33;98737.16;2082697;28;20068;-53
2022/09/07 04:14:06;;;;;;;2.33;1.20;;;;;;;27.32;49.31;98737.97;2091525;28;20040;-54
2022/09/07 04:15:07;;;;;;;4.93;1.10;;;;;;;27.33;49.49;98745.09;2080666;28;20568;-54
2022/09/07 04:16:11;;;;;;;2.83;1.00;;;;;;;27.34;49.08;98745.91;2081925;28;20095;-53
2022/09/07 04:17:12;;;;;;;1.92;1.58;;;;;;;27.33;49.44;98745.09;2083265;28;20539;-54
2022/09/07 04:18:15;;;;;;;0.82;0.73;;;;;;;27.35;49.32;98745.63;2082815;28;20186;-54
2022/09/07 04:19:16;;;;;;;2.10;0.93;;;;;;;27.36;49.34;98746.47;2081383;28;20403;-54
2022/09/07 04:20:18;;;;;;;2.70;0.98;;;;;;;27.30;49.49;98740.16;2084869;28;20071;-53
2022/09/07 04:21:20;;;;;;;1.33;1.10;;;;;;;27.29;49.46;98738.50;2083201;28;20048;-53
2022/09/07 04:22:22;;;;;;;3.72;1.15;;;;;;;27.29;49.50;98752.13;2087103;28;20048;-53
2022/09/07 04:23:23;;;;;;;2.17;1.13;;;;;;;27.31;49.61;98746.44;2086750;28;20704;-53
2022/09/07 04:24:25;;;;;;;1.80;1.58;;;;;;;27.30;49.24;98744.75;2086097;28;20102;-53
2022/09/07 04:25:26;;;;;;;2.17;0.90;;;;;;;27.30;49.50;98747.50;2085347;28;20164;-53
2022/09/07 04:26:30;;;;;;;2.97;0.98;;;;;;;27.29;49.82;98746.66;2087736;28;20156;-52
2022/09/07 04:27:31;;;;;;;0.95;0.95;;;;;;;27.27;49.38;98743.38;2084473;28;20045;-53
2022/09/07 04:28:33;;;;;;;2.33;0.90;;;;;;;27.29;49.55;98752.13;2085957;28;20684;-54
2022/09/07 04:29:34;;;;;;;1.30;1.20;;;;;;;27.30;49.31;98751.06;2083038;28;20633;-53
2022/09/07 04:30:36;;;;;;;1.10;0.80;;;;;;;27.28;49.42;98747.75;2081456;28;20040;-51
2022/09/07 04:31:37;;;;;;;1.70;0.80;;;;;;;27.28;50.09;98753.22;2080287;28;20049;-54
2022/09/07 04:32:39;;;;;;;1.90;1.17;;;;;;;27.30;49.69;98756.50;2084360;28;20045;-56
2022/09/07 04:33:42;;;;;;;2.70;0.75;;;;;;;27.28;49.74;98758.66;2087415;28;20045;-52
2022/09/07 04:34:44;;;;;;;1.63;1.17;;;;;;;27.28;49.40;98750.47;2085981;28;20072;-53
2022/09/07 04:35:45;;;;;;;2.35;1.10;;;;;;;27.29;49.43;98754.84;2087593;28;20522;-54
2022/09/07 04:36:47;;;;;;;1.20;0.68;;;;;;;27.28;49.79;98761.38;2086513;28;20120;-54
2022/09/07 04:37:48;;;;;;;3.28;1.42;;;;;;;27.27;49.82;98756.19;2085779;28;20045;-53
2022/09/07 04:38:54;;;;;;;3.10;1.25;;;;;;;27.30;49.75;98761.94;2088435;28;20072;-53
2022/09/07 04:39:55;;;;;;;3.92;1.13;;;;;;;27.27;49.84;98762.44;2088327;28;20263;-52
2022/09/07 04:41:01;;;;;;;1.25;0.77;;;;;;;27.27;49.41;98748.81;2085084;28;20159;-53
2022/09/07 04:42:02;;;;;;;2.03;1.20;;;;;;;27.26;49.63;98749.09;2085129;28;20560;-50
2022/09/07 04:43:04;;;;;;;1.55;0.90;;;;;;;27.26;49.64;98755.34;2089558;28;20041;-53
2022/09/07 04:44:06;;;;;;;2.65;1.15;;;;;;;27.31;49.42;98752.69;2085367;28;20076;-55
2022/09/07 04:45:07;;;;;;;1.60;1.00;;;;;;;27.31;49.56;98760.84;2079596;28;20049;-52
2022/09/07 04:46:16;;;;;;;3.53;0.88;;;;;;;27.30;49.68;98756.50;2084268;28;20048;-53
2022/09/07 04:47:17;;;;;;;1.27;1.00;;;;;;;27.27;49.95;98758.91;2093197;28;20052;-55
2022/09/07 04:48:18;;;;;;;4.03;0.93;;;;;;;27.27;49.59;98756.19;2084324;28;20052;-54
2022/09/07 04:49:21;;;;;;;1.65;1.25;;;;;;;27.28;50.02;98755.94;2086283;28;20084;-55
2022/09/07 04:50:23;;;;;;;2.10;1.15;;;;;;;27.29;49.68;98754.03;2087299;28;20052;-54
2022/09/07 04:51:27;;;;;;;1.73;1.25;;;;;;;27.27;49.91;98765.16;2085290;28;20159;-55
2022/09/07 04:52:28;;;;;;;4.15;1.00;;;;;;;27.27;49.73;98762.44;2087174;28;20422;-54
2022/09/07 04:53:30;;;;;;;2.88;1.02;;;;;;;27.27;49.73;98762.44;2087402;28;20120;-54
2022/09/07 04:54:31;;;;;;;1.20;1.10;;;;;;;27.26;49.87;98760.00;2087140;28;20044;-57
2022/09/07 04:55:33;;;;;;;1.25;0.98;;;;;;;27.28;49.65;98760.56;2088029;28;20124;-53
2022/09/07 04:56:34;;;;;;;2.08;1.02;;;;;;;27.26;50.13;98766.25;2077764;28;20059;-51
2022/09/07 04:57:36;;;;;;;1.60;1.00;;;;;;;27.25;50.12;98764.63;2083169;28;20044;-55
2022/09/07 04:58:37;;;;;;;6.18;1.58;;;;;;;27.24;49.64;98768.41;2083150;28;20052;-52
2022/09/07 04:59:39;;;;;;;1.98;1.10;;;;;;;27.24;50.00;98760.22;2080375;28;20921;-55
2022/09/07 05:00:40;;;;;;;2.65;1.05;;;;;;;27.23;49.80;98753.16;2085578;28;20044;-52
2022/09/07 05:01:42;;;;;;;2.67;1.30;;;;;;;27.26;49.52;98762.72;2083515;28;20619;-53
2022/09/07 05:02:43;;;;;;;1.63;1.40;;;;;;;27.25;49.89;98758.34;2083802;28;20734;-51
2022/09/07 05:03:45;;;;;;;2.72;0.98;;;;;;;27.25;49.77;98759.19;2083784;28;20075;-51
2022/09/07 05:04:48;;;;;;;2.53;2.33;;;;;;;27.24;49.86;98752.06;2083096;28;20049;-51